Time;durP1;ratioP1;P1;durP2;ratioP2;P2;SDS_P1;SDS_P2;PMS_P1;PMS_P2;Temp;Humidity;BMP_temperature;BMP_pressure;BME280_temperature;BME280_humidity;BME280_pressure;Samples;Min_cycle;Max_cycle;Signal;HPM_P1;HPM_P2
2022/06/08 00:01:24;;;;;;;1.98;0.40;;;11.70;99.90;;;;;;5071878;28;20037;-73
2022/06/08 00:03:55;;;;;;;1.30;0.40;;;11.70;99.90;;;;;;5073160;28;20048;-73
2022/06/08 00:06:22;;;;;;;1.90;0.50;;;11.80;99.90;;;;;;5072017;28;20111;-76
2022/06/08 00:08:50;;;;;;;3.97;0.70;;;11.70;99.90;;;;;;5071714;28;20478;-74
2022/06/08 00:11:18;;;;;;;3.20;0.38;;;11.80;99.90;;;;;;5073099;28;20048;-74
2022/06/08 00:13:46;;;;;;;1.10;0.43;;;11.80;99.90;;;;;;5071572;28;20487;-76
2022/06/08 00:16:13;;;;;;;1.73;0.50;;;11.90;99.90;;;;;;5072591;28;20028;-75
2022/06/08 00:18:42;;;;;;;1.60;0.60;;;12.00;99.90;;;;;;5073082;28;20017;-76
2022/06/08 00:21:15;;;;;;;2.22;0.40;;;12.00;99.90;;;;;;5072897;28;20391;-77
2022/06/08 00:23:43;;;;;;;0.98;0.50;;;12.00;99.90;;;;;;5071606;28;20451;-76
2022/06/08 00:26:10;;;;;;;0.98;0.70;;;12.10;99.90;;;;;;5073195;28;20103;-76
2022/06/08 00:28:38;;;;;;;2.15;0.63;;;12.10;99.90;;;;;;5073190;28;20028;-75
2022/06/08 00:31:05;;;;;;;1.92;0.60;;;12.20;99.90;;;;;;5072708;28;20037;-75
2022/06/08 00:33:33;;;;;;;0.47;0.30;;;12.20;99.90;;;;;;5071478;28;20633;-76
2022/06/08 00:36:03;;;;;;;1.67;0.50;;;12.20;99.90;;;;;;5071441;28;20079;-75
2022/06/08 00:38:31;;;;;;;1.67;0.50;;;12.30;99.90;;;;;;5071473;28;20017;-76
2022/06/08 00:41:34;;;;;;;1.08;0.88;;;12.40;99.90;;;;;;5071518;28;20492;-76
2022/06/08 00:44:08;;;;;;;2.75;0.30;;;12.50;99.90;;;;;;5071356;28;20028;-76
2022/06/08 00:46:35;;;;;;;2.05;0.30;;;12.60;99.90;;;;;;5073085;28;20039;-76
2022/06/08 00:49:13;;;;;;;2.25;0.35;;;12.60;99.90;;;;;;5071390;28;20031;-76
2022/06/08 00:51:41;;;;;;;1.50;0.35;;;12.50;99.90;;;;;;5072804;28;20025;-76
2022/06/08 00:54:16;;;;;;;1.13;0.52;;;12.60;99.90;;;;;;5071321;28;20111;-76
2022/06/08 00:57:00;;;;;;;1.80;0.40;;;12.70;99.90;;;;;;5071476;28;20526;-76
2022/06/08 00:59:28;;;;;;;1.55;0.25;;;12.80;99.90;;;;;;5072909;28;20021;-76
2022/06/08 01:01:55;;;;;;;1.55;0.50;;;12.80;99.90;;;;;;5072588;28;20017;-76
2022/06/08 01:04:23;;;;;;;0.57;0.20;;;13.00;99.90;;;;;;5072705;28;20044;-76
2022/06/08 01:06:59;;;;;;;2.28;0.32;;;13.00;99.90;;;;;;5072436;28;20052;-76
2022/06/08 01:09:36;;;;;;;1.05;0.40;;;13.00;99.90;;;;;;5071168;28;20499;-76
2022/06/08 01:12:14;;;;;;;0.73;0.30;;;13.00;99.90;;;;;;5072668;28;20366;-76
2022/06/08 01:14:43;;;;;;;1.33;0.57;;;13.00;99.90;;;;;;5072317;28;20074;-75
2022/06/08 01:17:16;;;;;;;0.70;0.40;;;13.00;99.90;;;;;;5072289;28;20100;-74
2022/06/08 01:19:46;;;;;;;6.22;1.00;;;13.00;99.90;;;;;;5070967;28;20031;-74
2022/06/08 01:22:19;;;;;;;1.50;0.40;;;13.10;99.90;;;;;;5072296;28;20103;-74
2022/06/08 01:24:49;;;;;;;0.45;0.20;;;13.30;99.90;;;;;;5072286;28;20074;-74
2022/06/08 01:27:23;;;;;;;0.40;0.20;;;13.40;99.90;;;;;;5074700;28;20024;-74
2022/06/08 01:30:16;;;;;;;2.85;0.50;;;13.60;99.90;;;;;;5076134;28;20023;-74
2022/06/08 01:33:08;;;;;;;0.88;0.30;;;13.80;99.90;;;;;;5074772;28;20524;-75
2022/06/08 01:35:50;;;;;;;0.57;0.13;;;13.80;99.90;;;;;;5076183;28;20388;-75
2022/06/08 01:38:38;;;;;;;0.77;0.20;;;13.80;99.90;;;;;;5076145;28;20059;-75
2022/06/08 01:42:02;;;;;;;0.80;0.40;;;13.80;99.90;;;;;;5075991;28;20016;-75
2022/06/08 01:47:50;;;;;;;0.50;0.25;;;13.70;99.90;;;;;;5076264;28;20111;-75
2022/06/08 01:50:36;;;;;;;0.22;0.17;;;13.90;99.90;;;;;;5076131;28;20016;-75
2022/06/08 01:53:30;;;;;;;0.88;0.17;;;14.00;99.90;;;;;;5075915;28;20068;-76
2022/06/08 01:55:57;;;;;;;0.90;0.45;;;13.90;99.90;;;;;;5075952;28;20024;-75
2022/06/08 01:58:53;;;;;;;2.45;0.30;;;13.90;99.90;;;;;;5076073;28;20025;-75
2022/06/08 02:01:33;;;;;;;0.70;0.28;;;14.00;99.90;;;;;;5074468;28;20025;-75
2022/06/08 02:04:23;;;;;;;1.35;0.20;;;14.10;99.90;;;;;;5074513;28;20029;-75
2022/06/08 02:07:00;;;;;;;0.85;0.35;;;14.20;99.90;;;;;;5074338;28;20028;-75
2022/06/08 02:09:40;;;;;;;0.52;0.13;;;14.30;99.90;;;;;;5074412;28;20024;-75
2022/06/08 02:12:11;;;;;;;0.90;0.20;;;14.20;99.90;;;;;;5075749;28;20107;-76
2022/06/08 02:14:51;;;;;;;1.30;0.35;;;14.30;99.90;;;;;;5075657;28;20032;-76
2022/06/08 02:17:42;;;;;;;0.50;0.32;;;14.50;99.90;;;;;;5075498;28;20070;-76
2022/06/08 02:20:17;;;;;;;1.95;0.20;;;14.50;99.90;;;;;;5075376;28;20024;-76
2022/06/08 02:23:23;;;;;;;0.98;0.22;;;14.50;99.90;;;;;;5075349;28;20048;-75
2022/06/08 02:26:05;;;;;;;0.50;0.30;;;14.40;99.90;;;;;;5071572;28;20370;-75
2022/06/08 02:28:38;;;;;;;1.48;0.40;;;14.30;99.90;;;;;;5074084;28;20079;-74
2022/06/08 02:31:19;;;;;;;0.80;0.30;;;14.50;99.90;;;;;;5075183;28;20031;-74
2022/06/08 02:36:48;;;;;;;1.48;0.57;;;14.60;99.20;;;;;;5075570;28;20110;-76
2022/06/08 02:39:28;;;;;;;0.93;0.20;;;14.70;98.80;;;;;;5074642;28;20019;-74
2022/06/08 02:41:58;;;;;;;;;;;14.70;99.40;;;;;;5074236;28;20028;-74
2022/06/08 02:44:31;;;;;;;0.55;0.30;;;14.60;99.40;;;;;;5075042;28;20261;-75
2022/06/08 02:47:29;;;;;;;1.15;0.20;;;14.80;99.20;;;;;;5073750;28;20029;-74
2022/06/08 02:50:00;;;;;;;2.10;0.30;;;14.80;99.00;;;;;;5073717;28;20025;-74
2022/06/08 02:52:29;;;;;;;2.65;0.40;;;14.80;98.40;;;;;;5074747;28;20075;-75
2022/06/08 02:54:57;;;;;;;0.88;0.20;;;14.80;98.60;;;;;;5074606;28;20028;-75
2022/06/08 02:57:50;;;;;;;0.73;0.25;;;14.70;98.90;;;;;;5073441;28;20021;-75
2022/06/08 03:00:47;;;;;;;0.95;0.30;;;14.70;98.60;;;;;;5074741;28;20024;-75
2022/06/08 03:03:32;;;;;;;1.02;0.40;;;14.80;98.50;;;;;;5072532;28;20032;-75
2022/06/08 03:06:08;;;;;;;3.13;0.20;;;14.80;97.90;;;;;;5075043;28;20118;-74
2022/06/08 03:08:43;;;;;;;1.70;0.20;;;14.80;98.30;;;;;;5073226;28;20115;-74
2022/06/08 03:11:11;;;;;;;0.85;0.30;;;14.70;98.10;;;;;;5073679;28;20090;-75
2022/06/08 03:13:58;;;;;;;0.63;0.20;;;14.90;98.20;;;;;;5074293;28;20036;-75
2022/06/08 03:16:35;;;;;;;0.75;0.28;;;14.90;98.20;;;;;;5074824;28;20013;-75
2022/06/08 03:19:02;;;;;;;0.68;0.20;;;14.70;97.60;;;;;;5074392;28;20020;-74
2022/06/08 03:21:30;;;;;;;1.02;0.30;;;14.80;98.20;;;;;;5074298;28;20024;-74
2022/06/08 03:23:59;;;;;;;0.40;0.10;;;15.00;97.30;;;;;;5074157;28;20024;-74
2022/06/08 03:26:34;;;;;;;0.30;0.20;;;15.00;96.90;;;;;;5072835;28;20048;-74
2022/06/08 03:29:02;;;;;;;0.82;0.22;;;14.80;96.50;;;;;;5072618;28;20086;-74
2022/06/08 03:31:29;;;;;;;1.30;0.10;;;14.80;97.00;;;;;;5074343;28;20410;-74
2022/06/08 03:33:56;;;;;;;1.33;0.40;;;14.80;96.90;;;;;;5073819;28;20028;-75
2022/06/08 03:36:24;;;;;;;1.95;0.20;;;15.00;97.20;;;;;;5072544;28;20021;-74
2022/06/08 03:38:51;;;;;;;0.50;0.17;;;15.10;97.20;;;;;;5074004;28;20366;-76
2022/06/08 03:41:18;;;;;;;3.30;0.30;;;15.00;96.90;;;;;;5073981;28;20078;-74
2022/06/08 03:43:46;;;;;;;1.30;0.15;;;15.00;96.70;;;;;;5073852;28;20072;-75
2022/06/08 03:46:14;;;;;;;0.85;0.20;;;15.00;96.70;;;;;;5074056;28;20028;-75
2022/06/08 03:48:44;;;;;;;0.63;0.20;;;14.90;96.80;;;;;;5072430;28;20059;-75
2022/06/08 03:51:15;;;;;;;1.85;0.50;;;14.80;97.00;;;;;;5071409;28;20074;-75
2022/06/08 03:53:51;;;;;;;2.17;0.20;;;15.00;97.20;;;;;;5072277;28;20043;-74
2022/06/08 03:56:20;;;;;;;1.67;0.47;;;14.90;96.60;;;;;;5073176;28;20029;-75
2022/06/08 03:58:48;;;;;;;1.70;0.20;;;15.00;98.00;;;;;;5073193;28;20108;-75
2022/06/08 04:01:16;;;;;;;1.98;0.25;;;15.10;97.60;;;;;;5072013;28;20025;-75
2022/06/08 04:03:43;;;;;;;1.15;0.20;;;15.10;98.00;;;;;;5072041;28;20395;-77
2022/06/08 04:06:11;;;;;;;3.00;0.40;;;15.10;96.60;;;;;;5071733;28;20032;-75
2022/06/08 04:08:38;;;;;;;0.80;0.15;;;14.90;97.00;;;;;;5073603;28;20020;-75
2022/06/08 04:11:06;;;;;;;3.22;0.40;;;15.00;96.80;;;;;;5071903;28;20497;-75
2022/06/08 04:13:33;;;;;;;1.27;0.40;;;15.00;96.20;;;;;;5073147;28;20028;-75
2022/06/08 04:16:02;;;;;;;0.73;0.20;;;15.00;96.60;;;;;;5071808;28;20578;-74
2022/06/08 04:18:30;;;;;;;0.68;0.30;;;15.10;96.70;;;;;;5073186;28;20423;-76
2022/06/08 04:21:01;;;;;;;0.93;0.30;;;15.00;97.00;;;;;;5071537;28;20024;-75
2022/06/08 04:23:31;;;;;;;1.27;0.63;;;14.90;96.90;;;;;;5073196;28;20107;-75
2022/06/08 04:25:59;;;;;;;0.50;0.20;;;14.80;97.20;;;;;;5072906;28;20020;-75
2022/06/08 04:28:27;;;;;;;0.50;0.20;;;14.90;97.90;;;;;;5073015;28;20391;-75
2022/06/08 04:30:54;;;;;;;1.30;0.20;;;14.90;97.20;;;;;;5071656;28;20028;-73
2022/06/08 04:33:22;;;;;;;0.77;0.10;;;14.90;98.20;;;;;;5072602;28;20052;-74
2022/06/08 04:35:49;;;;;;;2.13;0.50;;;14.80;96.90;;;;;;5072806;28;20114;-74
2022/06/08 04:38:17;;;;;;;0.90;0.40;;;14.80;96.50;;;;;;5073134;28;20017;-75
2022/06/08 04:40:46;;;;;;;2.05;0.60;;;14.70;97.40;;;;;;5072840;28;20472;-74
2022/06/08 04:43:14;;;;;;;0.65;0.20;;;14.80;96.50;;;;;;5072912;28;20028;-74
2022/06/08 04:45:42;;;;;;;1.42;0.38;;;14.70;96.90;;;;;;5071522;28;20425;-76
2022/06/08 04:48:09;;;;;;;0.95;0.30;;;14.70;97.80;;;;;;5071662;28;20020;-76
2022/06/08 04:50:37;;;;;;;1.63;0.20;;;14.70;97.20;;;;;;5072880;28;20052;-76
2022/06/08 04:53:05;;;;;;;1.35;0.10;;;14.60;96.40;;;;;;5071404;28;20400;-76
2022/06/08 04:55:32;;;;;;;0.68;0.45;;;14.50;96.00;;;;;;5071526;28;20024;-75
2022/06/08 04:58:01;;;;;;;0.30;0.20;;;14.40;96.20;;;;;;5072850;28;20017;-75
2022/06/08 05:00:29;;;;;;;2.22;0.38;;;14.30;97.10;;;;;;5072826;28;20013;-72
2022/06/08 05:02:57;;;;;;;1.52;0.30;;;14.40;97.30;;;;;;5074736;28;20024;-73
2022/06/08 05:05:30;;;;;;;0.95;0.10;;;14.40;97.10;;;;;;5075553;28;20028;-75
2022/06/08 05:07:58;;;;;;;1.77;0.30;;;14.20;96.70;;;;;;5075487;28;20036;-75
2022/06/08 05:10:30;;;;;;;1.92;0.50;;;14.30;96.90;;;;;;5077043;28;20047;-75
2022/06/08 05:12:58;;;;;;;1.20;0.13;;;14.30;96.90;;;;;;5076773;28;20031;-74
2022/06/08 05:15:34;;;;;;;3.03;0.30;;;14.40;97.20;;;;;;5076629;28;20385;-74
2022/06/08 05:18:01;;;;;;;1.48;0.43;;;14.30;97.30;;;;;;5075195;28;20082;-74
2022/06/08 05:20:30;;;;;;;1.08;0.30;;;14.30;97.60;;;;;;5076590;28;20028;-73
2022/06/08 05:22:57;;;;;;;1.70;0.50;;;14.30;96.90;;;;;;5074854;28;20027;-74
2022/06/08 05:25:37;;;;;;;0.63;0.30;;;14.20;97.10;;;;;;5076401;28;20027;-74
2022/06/08 05:28:07;;;;;;;1.55;0.32;;;14.20;97.40;;;;;;5074921;28;20094;-74
2022/06/08 05:30:35;;;;;;;0.52;0.20;;;14.20;97.60;;;;;;5075967;28;20103;-75
2022/06/08 05:33:04;;;;;;;1.30;0.40;;;14.10;97.50;;;;;;5074539;28;20056;-75
2022/06/08 05:35:32;;;;;;;1.77;0.38;;;14.10;98.10;;;;;;5074883;28;20036;-76
2022/06/08 05:37:59;;;;;;;1.70;0.50;;;14.10;97.70;;;;;;5076086;28;20032;-75
2022/06/08 05:40:35;;;;;;;1.50;0.40;;;14.00;98.20;;;;;;5076171;28;20017;-75
2022/06/08 05:43:02;;;;;;;2.67;0.52;;;13.90;99.10;;;;;;5074698;28;20066;-75
2022/06/08 05:45:31;;;;;;;2.60;0.47;;;13.80;99.00;;;;;;5076314;28;20043;-75
2022/06/08 05:47:59;;;;;;;1.88;0.40;;;13.80;98.30;;;;;;5076042;28;20031;-75
2022/06/08 05:50:28;;;;;;;2.53;0.57;;;13.80;98.10;;;;;;5075913;28;20027;-75
2022/06/08 05:52:56;;;;;;;1.20;0.30;;;13.70;99.60;;;;;;5075745;28;20020;-75
2022/06/08 05:55:25;;;;;;;1.15;0.40;;;13.60;99.10;;;;;;5075779;28;20024;-75
2022/06/08 05:57:52;;;;;;;1.85;0.30;;;13.60;99.20;;;;;;5074336;28;20431;-74
2022/06/08 06:00:29;;;;;;;2.45;0.40;;;13.70;98.60;;;;;;5074349;28;20027;-74
2022/06/08 06:02:57;;;;;;;2.70;0.47;;;13.60;98.80;;;;;;5074380;28;20074;-75
2022/06/08 06:05:29;;;;;;;1.77;0.50;;;13.50;99.50;;;;;;5074371;28;20024;-75
2022/06/08 06:07:58;;;;;;;1.92;0.60;;;13.40;99.90;;;;;;5075716;28;20016;-75
2022/06/08 06:10:28;;;;;;;2.30;0.50;;;13.40;99.50;;;;;;5074185;28;20051;-75
2022/06/08 06:12:55;;;;;;;1.83;0.35;;;13.40;98.80;;;;;;5074562;28;20108;-75
2022/06/08 06:15:27;;;;;;;1.02;0.40;;;13.30;99.70;;;;;;5075238;28;20024;-76
2022/06/08 06:17:54;;;;;;;1.13;0.40;;;13.20;99.10;;;;;;5075280;28;20391;-77
2022/06/08 06:20:22;;;;;;;2.47;0.50;;;13.20;99.30;;;;;;5074108;28;20024;-76
2022/06/08 06:22:50;;;;;;;1.08;0.30;;;13.10;99.90;;;;;;5073956;28;20021;-77
2022/06/08 06:25:18;;;;;;;1.65;0.75;;;13.00;99.60;;;;;;5075469;28;20016;-76
2022/06/08 06:27:45;;;;;;;1.17;0.50;;;13.00;99.70;;;;;;5074052;28;20036;-77
2022/06/08 06:30:14;;;;;;;1.85;0.40;;;13.00;99.70;;;;;;5073833;28;20518;-75
2022/06/08 06:32:42;;;;;;;3.25;0.55;;;13.00;99.90;;;;;;5074997;28;20057;-76
2022/06/08 06:35:25;;;;;;;2.08;0.60;;;12.90;99.60;;;;;;5075001;28;20028;-75
2022/06/08 06:37:53;;;;;;;2.15;0.60;;;12.80;99.90;;;;;;5075464;28;20055;-76
2022/06/08 06:40:21;;;;;;;1.73;0.50;;;12.80;99.70;;;;;;5073747;28;20372;-76
2022/06/08 06:42:49;;;;;;;1.08;0.45;;;12.60;99.90;;;;;;5074896;28;20027;-75
2022/06/08 06:45:17;;;;;;;1.33;0.40;;;12.60;99.90;;;;;;5074773;28;20024;-75
2022/06/08 06:47:44;;;;;;;1.70;0.85;;;12.50;99.90;;;;;;5074850;28;20035;-75
2022/06/08 06:50:14;;;;;;;0.55;0.25;;;12.40;99.90;;;;;;5074607;28;20059;-75
2022/06/08 06:52:41;;;;;;;0.98;0.50;;;12.30;99.90;;;;;;5073449;28;20083;-75
2022/06/08 06:55:15;;;;;;;1.65;0.50;;;12.30;99.90;;;;;;5074427;28;20031;-75
2022/06/08 06:57:42;;;;;;;1.90;0.90;;;12.20;99.90;;;;;;5074629;28;20024;-76
2022/06/08 07:00:10;;;;;;;3.45;0.73;;;12.10;99.90;;;;;;5074312;28;20385;-75
2022/06/08 07:02:37;;;;;;;1.00;0.50;;;12.10;99.90;;;;;;5074600;28;20029;-74
2022/06/08 07:05:05;;;;;;;3.15;0.75;;;12.10;99.90;;;;;;5072886;28;20086;-72
2022/06/08 07:07:33;;;;;;;2.05;0.60;;;12.10;99.90;;;;;;5074347;28;20021;-72
2022/06/08 07:10:00;;;;;;;2.97;0.50;;;12.10;99.90;;;;;;5073121;28;20036;-72
2022/06/08 07:12:27;;;;;;;1.35;0.75;;;12.00;99.90;;;;;;5074667;28;20058;-73
2022/06/08 07:14:55;;;;;;;2.35;0.50;;;12.00;99.90;;;;;;5074192;28;20104;-74
2022/06/08 07:17:22;;;;;;;2.40;1.10;;;11.90;99.90;;;;;;5073008;28;20059;-74
2022/06/08 07:19:49;;;;;;;1.23;0.40;;;11.80;99.90;;;;;;5074198;28;20479;-74
2022/06/08 07:22:17;;;;;;;1.88;0.60;;;11.80;99.90;;;;;;5074137;28;20065;-74
2022/06/08 07:24:45;;;;;;;2.28;0.30;;;11.70;99.90;;;;;;5073780;28;20381;-74
2022/06/08 07:27:12;;;;;;;2.85;0.57;;;11.40;99.90;;;;;;5074204;28;20103;-75
2022/06/08 07:29:39;;;;;;;1.55;0.40;;;11.50;99.90;;;;;;5074061;28;20407;-75
2022/06/08 07:32:07;;;;;;;2.22;0.60;;;11.60;99.90;;;;;;5072579;28;20048;-74
2022/06/08 07:34:35;;;;;;;1.40;0.50;;;11.70;99.90;;;;;;5072577;28;20064;-74
2022/06/08 07:37:02;;;;;;;1.75;0.80;;;11.60;99.90;;;;;;5073915;28;20033;-74
2022/06/08 07:39:30;;;;;;;3.65;0.90;;;11.60;99.90;;;;;;5072558;28;20016;-73
2022/06/08 07:41:57;;;;;;;2.92;0.85;;;11.50;99.90;;;;;;5073794;28;20021;-76
2022/06/08 07:44:24;;;;;;;2.65;0.70;;;11.50;99.90;;;;;;5073758;28;20028;-76
2022/06/08 07:46:52;;;;;;;2.65;0.75;;;11.40;99.90;;;;;;5073845;28;20380;-73
2022/06/08 07:49:39;;;;;;;1.95;0.80;;;11.40;99.90;;;;;;5073686;28;20435;-73
2022/06/08 07:52:11;;;;;;;2.55;0.60;;;11.40;99.90;;;;;;5073989;28;20111;-73
2022/06/08 07:54:39;;;;;;;1.98;0.70;;;11.30;99.90;;;;;;5073750;28;20027;-74
2022/06/08 07:57:07;;;;;;;1.10;0.68;;;11.20;99.90;;;;;;5073651;28;20078;-73
2022/06/08 07:59:36;;;;;;;2.67;1.52;;;11.10;99.90;;;;;;5073460;28;20074;-72
2022/06/08 08:02:06;;;;;;;4.63;1.35;;;11.10;99.90;;;;;;5073474;28;20050;-71
2022/06/08 08:04:34;;;;;;;2.70;1.10;;;11.10;99.90;;;;;;5072038;28;20024;-69
2022/06/08 08:07:02;;;;;;;2.28;1.30;;;11.10;99.90;;;;;;5072096;28;20491;-73
2022/06/08 08:09:31;;;;;;;1.77;0.80;;;11.10;99.90;;;;;;5073280;28;20044;-72
2022/06/08 08:11:59;;;;;;;2.65;1.08;;;10.90;99.90;;;;;;5073262;28;20027;-72
2022/06/08 08:14:27;;;;;;;1.30;0.60;;;10.90;99.90;;;;;;5073271;28;20032;-72
2022/06/08 08:16:54;;;;;;;1.88;0.60;;;10.80;99.90;;;;;;5073314;28;20024;-73
2022/06/08 08:19:25;;;;;;;4.78;0.90;;;10.80;99.90;;;;;;5073409;28;20422;-74
2022/06/08 08:21:53;;;;;;;1.85;0.57;;;10.70;99.90;;;;;;5072028;28;20419;-74
2022/06/08 08:24:22;;;;;;;1.90;0.65;;;10.70;99.90;;;;;;5071818;28;20020;-74
2022/06/08 08:26:50;;;;;;;2.22;0.98;;;10.70;99.90;;;;;;5071882;28;20412;-73
2022/06/08 08:29:19;;;;;;;1.70;0.60;;;10.60;99.90;;;;;;5073085;28;20077;-73
2022/06/08 08:31:47;;;;;;;2.75;0.60;;;10.60;99.90;;;;;;5073049;28;20040;-75
2022/06/08 08:34:14;;;;;;;2.30;0.82;;;10.60;99.90;;;;;;5072975;28;20024;-73
2022/06/08 08:36:41;;;;;;;1.40;0.60;;;10.50;99.90;;;;;;5072346;28;20023;-73
2022/06/08 08:39:10;;;;;;;2.13;0.85;;;10.40;99.90;;;;;;5073008;28;20389;-73
2022/06/08 08:44:46;;;;;;;1.48;0.60;;;10.40;99.90;;;;;;5073084;28;20420;-73
2022/06/08 08:47:27;;;;;;;2.03;0.68;;;10.30;99.90;;;;;;5072902;28;20028;-73
2022/06/08 08:50:00;;;;;;;1.55;0.60;;;10.30;99.90;;;;;;5072974;28;20055;-73
2022/06/08 08:52:37;;;;;;;1.48;1.00;;;10.30;99.90;;;;;;5071567;28;20025;-74
2022/06/08 08:55:44;;;;;;;4.22;0.60;;;10.20;99.90;;;;;;5071474;28;20021;-74
2022/06/08 08:58:19;;;;;;;2.50;0.80;;;10.20;99.90;;;;;;5071406;28;20038;-73
2022/06/08 09:01:12;;;;;;;2.40;0.80;;;10.10;99.90;;;;;;5071467;28;20016;-73
2022/06/08 09:03:50;;;;;;;1.48;0.85;;;10.10;99.90;;;;;;5072682;28;20032;-71
2022/06/08 09:06:23;;;;;;;1.60;0.50;;;10.10;99.90;;;;;;5073238;28;20028;-72
2022/06/08 09:08:58;;;;;;;1.15;0.60;;;10.10;99.90;;;;;;5072774;28;20021;-73
2022/06/08 09:11:34;;;;;;;4.10;1.48;;;10.10;99.90;;;;;;5072689;28;20020;-72
2022/06/08 09:14:16;;;;;;;3.47;0.75;;;10.00;99.90;;;;;;5072750;28;20135;-72
2022/06/08 09:16:49;;;;;;;0.70;0.50;;;10.00;99.90;;;;;;5072756;28;20020;-72
2022/06/08 09:19:25;;;;;;;2.67;0.68;;;10.00;99.90;;;;;;5071376;28;20082;-71
2022/06/08 09:22:06;;;;;;;1.58;0.60;;;10.00;99.90;;;;;;5071263;28;20126;-72
2022/06/08 09:24:36;;;;;;;2.35;0.93;;;9.90;99.90;;;;;;5072749;28;20561;-72
2022/06/08 09:27:22;;;;;;;1.52;0.60;;;9.90;99.90;;;;;;5071219;28;20029;-70
2022/06/08 09:30:10;;;;;;;3.00;0.68;;;9.80;99.90;;;;;;5072642;28;20431;-71
2022/06/08 09:32:44;;;;;;;1.40;0.70;;;9.80;99.90;;;;;;5072479;28;20051;-71
2022/06/08 09:35:23;;;;;;;2.08;0.50;;;9.80;99.90;;;;;;5071159;28;20028;-72
2022/06/08 09:37:54;;;;;;;2.10;0.60;;;9.70;99.90;;;;;;5071220;28;20028;-71
2022/06/08 09:40:40;;;;;;;1.33;0.70;;;9.70;99.90;;;;;;5073268;28;20024;-71
2022/06/08 09:43:34;;;;;;;1.33;0.50;;;9.60;99.90;;;;;;5071100;28;20112;-72
2022/06/08 09:46:13;;;;;;;3.80;0.60;;;9.60;99.90;;;;;;5072354;28;20036;-73
2022/06/08 09:51:59;;;;;;;1.73;0.63;;;9.70;99.90;;;;;;5076202;28;20032;-72
2022/06/08 09:54:29;;;;;;;2.08;0.70;;;9.70;99.90;;;;;;5076248;28;20158;-73
2022/06/08 09:57:10;;;;;;;2.53;0.70;;;9.70;99.90;;;;;;5076020;28;20499;-72
2022/06/08 10:00:10;;;;;;;3.83;0.80;;;9.60;99.90;;;;;;5075984;28;20099;-71
2022/06/08 10:03:11;;;;;;;1.13;0.47;;;9.60;99.90;;;;;;5076122;28;20532;-72
2022/06/08 10:06:10;;;;;;;1.02;0.43;;;9.70;99.90;;;;;;5076137;28;20082;-72
2022/06/08 10:08:43;;;;;;;1.98;0.70;;;9.60;99.90;;;;;;5056484;28;20056;-71
2022/06/08 10:11:36;;;;;;;1.77;0.70;;;9.70;99.90;;;;;;5076238;28;20021;-71
2022/06/08 10:14:33;;;;;;;2.22;0.68;;;9.70;99.90;;;;;;5074273;28;20082;-71
2022/06/08 10:17:26;;;;;;;2.55;0.63;;;9.60;99.90;;;;;;5075554;28;20028;-72
2022/06/08 10:20:06;;;;;;;2.65;0.70;;;9.50;99.90;;;;;;5054404;28;20032;-72
2022/06/08 10:22:50;;;;;;;1.23;0.70;;;9.50;99.90;;;;;;5075695;28;20025;-72
2022/06/08 10:25:31;;;;;;;1.48;0.65;;;9.40;99.90;;;;;;5075496;28;20400;-72
2022/06/08 10:28:22;;;;;;;1.20;0.90;;;9.40;99.90;;;;;;5074104;28;20048;-71
2022/06/08 10:31:22;;;;;;;1.38;0.73;;;9.30;99.90;;;;;;5074116;28;20028;-71
2022/06/08 10:34:03;;;;;;;2.83;0.70;;;9.30;99.90;;;;;;5074993;28;20065;-72
2022/06/08 10:36:33;;;;;;;1.63;0.90;;;9.40;99.90;;;;;;5075883;28;20016;-71
2022/06/08 10:39:03;;;;;;;2.35;0.88;;;9.30;99.90;;;;;;5075271;28;20021;-74
2022/06/08 10:44:59;;;;;;;2.22;0.98;;;9.20;99.90;;;;;;5068971;28;20490;-71
2022/06/08 10:47:37;;;;;;;1.50;0.80;;;9.20;99.90;;;;;;5073736;28;20493;-71
2022/06/08 10:50:04;;;;;;;3.05;0.70;;;9.10;99.90;;;;;;5075091;28;20027;-70
2022/06/08 10:52:43;;;;;;;1.17;0.70;;;9.10;99.90;;;;;;5075402;28;20020;-71
2022/06/08 10:55:17;;;;;;;2.67;0.50;;;9.10;99.90;;;;;;5075104;28;20021;-71
2022/06/08 10:57:53;;;;;;;1.60;0.80;;;9.00;99.90;;;;;;5074995;28;20017;-71
2022/06/08 11:00:21;;;;;;;1.42;0.90;;;9.00;99.90;;;;;;5074175;28;20013;-70
2022/06/08 11:03:03;;;;;;;2.80;0.68;;;8.90;99.90;;;;;;5074973;28;20034;-70
2022/06/08 11:05:45;;;;;;;3.53;0.85;;;8.90;99.90;;;;;;5074635;28;20025;-70
2022/06/08 11:08:17;;;;;;;1.92;0.70;;;8.90;99.90;;;;;;5073409;28;20082;-70
2022/06/08 11:10:44;;;;;;;1.42;0.70;;;8.90;99.90;;;;;;5074651;28;20025;-71
2022/06/08 11:13:27;;;;;;;2.47;1.00;;;8.90;99.90;;;;;;5073418;28;20043;-70
2022/06/08 11:15:57;;;;;;;1.55;0.77;;;8.90;99.90;;;;;;5073145;28;20020;-71
2022/06/08 11:18:41;;;;;;;2.70;0.90;;;8.90;99.90;;;;;;5074349;28;20376;-70
2022/06/08 11:21:14;;;;;;;2.58;0.88;;;8.80;99.90;;;;;;5074383;28;20032;-71
2022/06/08 11:23:47;;;;;;;2.03;0.90;;;8.80;99.90;;;;;;5074651;28;20025;-72
2022/06/08 11:26:23;;;;;;;2.47;0.80;;;8.80;99.90;;;;;;5074727;28;20101;-73
2022/06/08 11:28:56;;;;;;;1.50;0.80;;;8.70;99.90;;;;;;5072834;28;20035;-72
2022/06/08 11:31:26;;;;;;;2.25;0.70;;;8.60;99.90;;;;;;5074163;28;20429;-73
2022/06/08 11:33:54;;;;;;;3.25;0.80;;;8.60;99.90;;;;;;5074390;28;20031;-73
2022/06/08 11:36:42;;;;;;;2.90;0.80;;;8.50;99.90;;;;;;5074272;28;20025;-73
2022/06/08 11:39:33;;;;;;;2.75;1.10;;;8.40;99.90;;;;;;5074228;28;20024;-73
2022/06/08 11:42:22;;;;;;;1.85;0.80;;;8.40;99.90;;;;;;5074256;28;20024;-73
2022/06/08 11:44:55;;;;;;;1.90;0.90;;;8.30;99.90;;;;;;5074320;28;20496;-73
2022/06/08 11:47:32;;;;;;;1.73;0.70;;;8.30;99.90;;;;;;5074099;28;20198;-73
2022/06/08 11:50:23;;;;;;;1.75;0.70;;;8.30;99.90;;;;;;5073852;28;20032;-73
2022/06/08 11:53:03;;;;;;;2.10;0.98;;;8.30;99.90;;;;;;5072583;28;20024;-73
2022/06/08 11:55:37;;;;;;;1.50;1.02;;;8.30;99.90;;;;;;5074012;28;20111;-73
2022/06/08 11:58:16;;;;;;;2.65;1.23;;;8.30;99.90;;;;;;5072345;28;20021;-71
2022/06/08 12:00:51;;;;;;;2.35;0.70;;;8.20;99.90;;;;;;5073675;28;20023;-72
2022/06/08 12:03:18;;;;;;;3.10;1.00;;;8.20;99.90;;;;;;5072398;28;20028;-72
2022/06/08 12:05:51;;;;;;;3.63;1.17;;;8.10;99.90;;;;;;5073556;28;20074;-71
2022/06/08 12:08:42;;;;;;;3.75;0.95;;;8.00;99.90;;;;;;5073582;28;20058;-72
2022/06/08 12:11:17;;;;;;;3.00;1.13;;;8.00;99.90;;;;;;5071359;28;20434;-72
2022/06/08 12:14:23;;;;;;;3.05;1.10;;;7.90;99.90;;;;;;5073300;28;20024;-72
2022/06/08 12:17:08;;;;;;;3.08;1.10;;;7.90;99.90;;;;;;5073448;28;20028;-72
2022/06/08 12:19:47;;;;;;;2.67;1.13;;;7.80;99.90;;;;;;5072074;28;20020;-73
2022/06/08 12:22:19;;;;;;;2.40;1.08;;;7.80;99.90;;;;;;5072027;28;20021;-72
2022/06/08 12:25:21;;;;;;;3.22;1.35;;;7.70;99.90;;;;;;5073373;28;20036;-72
2022/06/08 12:27:57;;;;;;;1.80;0.75;;;7.70;99.90;;;;;;5073210;28;20024;-73
2022/06/08 12:30:34;;;;;;;2.40;1.10;;;7.50;99.90;;;;;;5073069;28;20020;-73
2022/06/08 12:33:30;;;;;;;3.33;1.25;;;7.50;99.90;;;;;;5072968;28;20413;-73
2022/06/08 12:36:24;;;;;;;3.03;1.48;;;7.40;99.90;;;;;;5073299;28;20542;-73
2022/06/08 12:39:00;;;;;;;4.07;1.15;;;7.40;99.90;;;;;;5071785;28;20021;-73
2022/06/08 12:41:47;;;;;;;4.18;1.27;;;7.40;99.90;;;;;;5071814;28;20028;-73
2022/06/08 12:44:20;;;;;;;2.60;1.27;;;7.40;99.90;;;;;;5073552;28;20360;-72
2022/06/08 12:47:15;;;;;;;3.53;1.50;;;7.40;99.90;;;;;;5073279;28;20032;-72
2022/06/08 12:49:47;;;;;;;2.88;1.40;;;7.40;99.90;;;;;;5063641;28;20112;-72
2022/06/08 12:52:25;;;;;;;5.20;1.90;;;7.50;99.90;;;;;;5071632;28;20032;-71
2022/06/08 12:54:53;;;;;;;3.00;1.77;;;7.50;99.90;;;;;;5072969;28;20029;-72
2022/06/08 12:57:23;;;;;;;4.80;1.65;;;7.50;99.90;;;;;;5072833;28;20024;-72
2022/06/08 12:59:54;;;;;;;4.28;1.85;;;7.40;99.90;;;;;;5071637;28;20032;-71
2022/06/08 13:02:26;;;;;;;2.30;1.00;;;7.50;99.90;;;;;;5073449;28;20123;-72
2022/06/08 13:04:54;;;;;;;2.30;1.13;;;7.50;99.90;;;;;;5072909;28;20028;-72
2022/06/08 13:07:25;;;;;;;2.42;1.30;;;7.40;99.90;;;;;;5071488;28;20473;-72
2022/06/08 13:09:52;;;;;;;2.38;1.30;;;7.30;99.90;;;;;;5072869;28;20021;-71
2022/06/08 13:12:23;;;;;;;4.22;1.30;;;7.20;99.90;;;;;;5071489;28;20031;-71
2022/06/08 13:14:50;;;;;;;;;;;7.20;99.90;;;;;;5073361;28;20021;-71
2022/06/08 13:17:18;;;;;;;2.15;0.80;;;7.10;99.90;;;;;;5071317;28;19969;-71
2022/06/08 13:19:46;;;;;;;2.83;1.30;;;7.00;99.90;;;;;;5072681;28;20388;-71
2022/06/08 13:22:14;;;;;;;2.97;1.20;;;6.90;99.90;;;;;;5071765;28;20448;-72
2022/06/08 13:24:42;;;;;;;3.30;1.35;;;6.90;99.90;;;;;;5075462;28;20165;-70
2022/06/08 13:27:16;;;;;;;2.28;1.27;;;6.90;99.90;;;;;;5076519;28;20052;-71
2022/06/08 13:29:44;;;;;;;2.72;1.30;;;6.80;99.90;;;;;;5076452;28;20099;-74
2022/06/08 13:32:18;;;;;;;3.03;1.45;;;6.90;99.90;;;;;;5076327;28;20052;-72
2022/06/08 13:34:47;;;;;;;2.05;1.40;;;6.90;99.90;;;;;;5076458;28;20037;-73
2022/06/08 13:37:41;;;;;;;3.22;1.58;;;7.00;99.90;;;;;;5075036;28;20017;-72
2022/06/08 13:40:26;;;;;;;2.83;1.50;;;7.00;99.90;;;;;;5076244;28;20048;-73
2022/06/08 13:42:55;;;;;;;2.40;1.20;;;7.00;99.90;;;;;;5076309;28;20021;-72